Main page
METAR-TAF:

METAR-TAF

Airports :

Perpignan–Rivesaltes Airport

Perpignan, France

latitude: 42-44N, longitude: 002-52E, elevation: 43 m

Current weather observation

The report was made 12 minutes ago, at 20:30 UTC
Wind 9 kt from the West/Northwest
Temperature 4°C
Humidity 60%
Pressure 1030 hPa
Visibility 10 km or more
no clouds below 1500 m and no cumulonimbus

METAR: LFMP 212030Z AUTO 29009KT CAVOK 04/M03 Q1030 BECMG 31015G25KT

Time: 21:42 (20:42 UTC)

Forecast

The report was made 6 hours and 42 minutes ago, at 14:00 UTC
Forecast valid from 21 at 15 UTC to 22 at 15 UTC
Wind 15 kt from the Northwest with gusts up to 25 kt
Visibility 10 km or more
no clouds below 1500 m and no cumulonimbus
Temporary
from 21 at 15 UTC to 21 at 17 UTC
Wind 20 kt from the Northwest with gusts up to 40 kt
Becoming
from 22 at 10 UTC to 22 at 12 UTC
Wind 10 kt from the Northwest

TAF: LFMP 211400Z 2115/2215 31015G25KT CAVOK TEMPO 2115/2117 32020G40KT BECMG 2210/2212 31010KT

Weather observations and forecasts of more than 4000 airports (METAR and TAF reports).

The available stations are represented by yellow and red dots on the map.

Hover mouse over dot to see the name of the station.

Then click to see weather observations and forecasts.

To change the map : click on the green buttons with a black cross to zoom in, on the green button with a dash to zoom out, or on the green arrows for adjacent maps.


METAR-TAF: